Time;durP1;ratioP1;P1;durP2;ratioP2;P2;SDS_P1;SDS_P2;PMS_P1;PMS_P2;Temp;Humidity;BMP_temperature;BMP_pressure;BME280_temperature;BME280_humidity;BME280_pressure;Samples;Min_cycle;Max_cycle;Signal;HPM_P1;HPM_P2
2022/11/27 00:02:03;;;;;;;1.45;1.15;;;;;;;16.26;90.05;102198.66;20764538;28;20923;-83
2022/11/27 00:12:05;;;;;;;1.23;1.08;;;;;;;16.26;89.95;102183.38;20801542;28;20049;-83
2022/11/27 00:22:06;;;;;;;1.65;0.88;;;;;;;16.25;89.98;102176.28;20787386;28;20677;-83
2022/11/27 00:32:08;;;;;;;1.20;0.95;;;;;;;16.25;90.00;102157.47;20804364;28;20137;-83
2022/11/27 00:42:09;;;;;;;1.27;1.00;;;;;;;16.20;89.75;102157.78;20809969;28;20057;-83
2022/11/27 00:52:11;;;;;;;1.42;1.15;;;;;;;16.25;89.72;102168.22;20802412;28;20506;-83
2022/11/27 01:02:13;;;;;;;1.25;0.90;;;;;;;16.23;89.70;102168.31;20784860;28;20054;-83
2022/11/27 01:12:14;;;;;;;1.73;1.10;;;;;;;16.24;89.71;102171.84;20799851;28;20045;-84
2022/11/27 01:22:16;;;;;;;1.70;1.23;;;;;;;16.24;89.47;102153.06;20791161;28;20053;-84
2022/11/27 01:32:17;;;;;;;1.52;0.98;;;;;;;16.23;89.50;102145.94;20798141;28;20444;-83
2022/11/27 01:42:19;;;;;;;1.20;1.00;;;;;;;16.24;89.53;102147.69;20805937;28;20049;-83
2022/11/27 01:52:30;;;;;;;1.10;0.80;;;;;;;16.23;89.46;102141.44;20797067;28;20137;-84
2022/11/27 02:02:31;;;;;;;1.75;1.05;;;;;;;16.01;89.33;102088.19;20796759;28;20057;-83
2022/11/27 02:12:47;;;;;;;2.42;1.02;;;;;;;15.77;89.34;102040.34;20778254;28;20506;-84
2022/11/27 02:23:15;;;;;;;1.10;0.80;;;;;;;16.23;89.13;102076.09;20770763;28;20406;-84
2022/11/27 02:33:19;;;;;;;2.22;1.00;;;;;;;16.24;89.09;102067.06;20776075;28;20394;-83
2022/11/27 02:43:26;;;;;;;1.07;0.70;;;;;;;16.17;89.06;102041.56;20771572;28;20402;-83
2022/11/27 02:53:36;;;;;;;1.40;0.90;;;;;;;16.07;89.04;102014.41;20785543;28;20049;-83
2022/11/27 03:03:42;;;;;;;1.58;0.90;;;;;;;15.55;88.87;101924.53;20767611;28;20410;-84
2022/11/27 03:13:48;;;;;;;1.55;1.00;;;;;;;16.22;88.80;102029.56;20791200;28;20153;-83
2022/11/27 03:23:49;;;;;;;0.85;0.77;;;;;;;16.21;88.78;102016.22;20774660;28;20055;-83
2022/11/27 03:33:51;;;;;;;1.10;0.88;;;;;;;16.22;88.60;102001.81;20789774;28;20490;-84
2022/11/27 03:44:21;;;;;;;1.23;0.77;;;;;;;16.07;88.57;101982.16;20778161;28;20072;-84
2022/11/27 03:54:55;;;;;;;1.42;0.80;;;;;;;16.21;88.61;102009.03;20764741;28;20240;-84
2022/11/27 04:04:59;;;;;;;1.47;0.90;;;;;;;16.22;88.37;101983.00;20755687;28;20107;-83
2022/11/27 04:15:00;;;;;;;0.90;0.68;;;;;;;16.14;88.33;101945.91;20771664;28;20346;-84
2022/11/27 04:25:02;;;;;;;1.25;0.80;;;;;;;16.14;88.32;101935.16;20788225;28;20609;-83
2022/11/27 04:35:04;;;;;;;1.20;0.75;;;;;;;16.21;88.38;101946.34;20787683;28;20057;-83
2022/11/27 04:45:07;;;;;;;1.45;0.88;;;;;;;16.20;88.21;101948.19;20779641;28;20053;-83
2022/11/27 04:55:09;;;;;;;2.05;0.85;;;;;;;16.20;88.22;101947.31;20792811;28;20128;-83
2022/11/27 05:05:10;;;;;;;1.67;0.90;;;;;;;16.21;87.93;101954.41;20784469;28;20056;-84
2022/11/27 05:15:12;;;;;;;1.17;0.85;;;;;;;16.21;88.07;101949.03;20783292;28;20409;-83
2022/11/27 05:25:13;;;;;;;1.67;0.70;;;;;;;16.20;88.15;101936.56;20791660;28;20052;-83
2022/11/27 05:35:15;;;;;;;1.05;0.70;;;;;;;16.21;88.01;101927.53;20785698;28;20132;-84
2022/11/27 05:45:16;;;;;;;0.73;0.73;;;;;;;16.20;87.70;101910.56;20782246;28;20096;-84
2022/11/27 05:55:18;;;;;;;2.35;0.90;;;;;;;16.16;87.69;101897.44;20781981;28;20057;-84
2022/11/27 06:05:19;;;;;;;0.80;0.70;;;;;;;16.20;87.74;101902.53;20781464;28;20052;-84
2022/11/27 06:15:21;;;;;;;1.30;0.90;;;;;;;16.17;87.77;101886.59;20780282;28;20108;-83
2022/11/27 06:25:23;;;;;;;1.08;0.70;;;;;;;16.20;87.49;101883.72;20811948;28;20379;-83
2022/11/27 06:35:24;;;;;;;1.75;0.80;;;;;;;16.03;87.48;101847.22;20813555;28;20053;-84
2022/11/27 06:45:26;;;;;;;0.85;0.75;;;;;;;16.13;87.50;101863.59;20794665;28;20048;-84
2022/11/27 06:55:28;;;;;;;0.88;0.68;;;;;;;16.21;87.48;101876.50;20782942;28;20049;-84
2022/11/27 07:05:29;;;;;;;0.73;0.50;;;;;;;15.98;87.33;101832.34;20774751;28;20056;-84
2022/11/27 07:15:31;;;;;;;1.10;0.80;;;;;;;15.84;87.34;101799.19;20775793;28;20056;-83
2022/11/27 07:25:32;;;;;;;0.77;0.60;;;;;;;16.20;87.29;101869.41;20786880;28;20466;-84
2022/11/27 07:35:34;;;;;;;1.13;1.00;;;;;;;16.20;87.03;101870.28;20780960;28;21483;-87
2022/11/27 07:45:35;;;;;;;1.13;0.98;;;;;;;16.23;86.80;101847.69;20744519;28;20568;-87
2022/11/27 07:55:38;;;;;;;1.05;0.93;;;;;;;16.23;86.52;101808.28;20771036;28;20410;-89
2022/11/27 08:05:40;;;;;;;1.50;0.70;;;;;;;16.03;86.17;101771.13;20741100;28;20053;-89
2022/11/27 08:15:41;;;;;;;1.02;0.70;;;;;;;15.97;86.51;101740.19;20762342;28;20053;-89
2022/11/27 08:25:43;;;;;;;1.58;0.90;;;;;;;16.26;86.87;101785.69;20725662;28;20065;-91
2022/11/27 08:35:48;;;;;;;1.40;0.80;;;;;;;16.17;87.22;101776.44;20745300;28;20053;-87
2022/11/27 08:45:50;;;;;;;;;;;;;;;16.29;87.86;101790.84;20762127;28;20123;-94
2022/11/27 08:55:51;;;;;;;4.60;0.93;;;;;;;16.09;88.20;101771.59;20766801;28;19929;-86
2022/11/27 09:05:53;;;;;;;1.00;0.70;;;;;;;16.30;89.24;101797.13;20762368;28;20072;-86
2022/11/27 09:15:56;;;;;;;4.28;1.20;;;;;;;16.31;90.22;101813.13;20767254;28;20060;-86
2022/11/27 09:26:02;;;;;;;2.80;1.15;;;;;;;16.16;91.17;101766.69;20739890;28;20056;-85
2022/11/27 09:36:14;;;;;;;2.22;0.88;;;;;;;16.31;91.46;101782.72;20765568;28;20119;-87
2022/11/27 09:46:23;;;;;;;6.00;1.88;;;;;;;16.30;91.25;101779.16;20731132;28;20053;-87
2022/11/27 09:56:25;;;;;;;2.75;1.10;;;;;;;16.12;91.11;101753.53;20735253;28;20089;-86
2022/11/27 10:06:35;;;;;;;1.40;0.90;;;;;;;16.29;91.10;101785.47;20730778;28;20049;-86
2022/11/27 10:16:40;;;;;;;1.67;0.90;;;;;;;16.29;90.93;101780.09;20753249;28;20092;-86
2022/11/27 10:26:47;;;;;;;1.80;0.90;;;;;;;16.21;90.85;101766.34;20741651;28;20145;-86
2022/11/27 10:36:49;;;;;;;2.10;0.75;;;;;;;16.28;90.61;101756.91;20751364;28;20045;-84
2022/11/27 10:46:53;;;;;;;2.10;1.05;;;;;;;16.10;90.56;101710.66;20746674;28;20047;-85
2022/11/27 10:57:04;;;;;;;2.42;0.80;;;;;;;16.28;90.49;101724.66;20732083;28;20057;-87
2022/11/27 11:07:23;;;;;;;1.30;0.90;;;;;;;16.28;89.97;101703.16;20752509;28;20053;-86
2022/11/27 11:17:36;;;;;;;2.65;0.80;;;;;;;16.28;90.13;101694.25;20748944;28;20410;-86
2022/11/27 11:27:41;;;;;;;2.45;0.98;;;;;;;16.28;89.94;101687.03;20767914;28;20053;-86
2022/11/27 11:37:44;;;;;;;1.83;0.90;;;;;;;16.19;89.90;101658.13;20761901;28;20463;-88
2022/11/27 11:47:52;;;;;;;1.23;0.82;;;;;;;16.27;89.98;101653.06;20756654;28;20061;-85
2022/11/27 11:58:08;;;;;;;1.63;0.80;;;;;;;16.27;89.81;101642.31;20764372;28;20076;-86
2022/11/27 12:08:25;;;;;;;1.52;1.23;;;;;;;16.29;89.65;101623.41;20744587;28;20115;-86
2022/11/27 12:18:59;;;;;;;1.10;0.85;;;;;;;16.29;89.61;101607.31;20792666;28;20045;-86
2022/11/27 12:29:31;;;;;;;1.45;0.73;;;;;;;16.28;89.51;101568.81;20776998;28;20395;-86
2022/11/27 12:39:37;;;;;;;0.85;0.77;;;;;;;16.27;89.38;101561.72;20763990;28;20049;-87
2022/11/27 12:49:49;;;;;;;1.40;0.90;;;;;;;16.13;89.24;101510.81;20774514;28;20061;-86
2022/11/27 13:00:00;;;;;;;2.20;0.90;;;;;;;16.28;89.26;101541.94;20757070;28;20049;-87
2022/11/27 13:10:10;;;;;;;1.25;0.80;;;;;;;16.28;89.14;101527.66;20756236;28;20053;-86
2022/11/27 13:20:15;;;;;;;1.08;0.88;;;;;;;16.29;89.20;101505.19;20774966;28;20122;-86
2022/11/27 13:30:22;;;;;;;2.37;0.80;;;;;;;16.28;89.13;101490.06;20764054;28;20152;-87
2022/11/27 13:40:31;;;;;;;1.15;0.80;;;;;;;16.28;89.08;101472.09;20754098;28;20617;-89
2022/11/27 13:50:42;;;;;;;5.15;1.60;;;;;;;16.27;88.83;101459.63;20771568;28;20054;-86
2022/11/27 14:00:44;;;;;;;1.83;1.25;;;;;;;16.08;88.78;101423.38;20773887;28;20054;-87
2022/11/27 14:11:02;;;;;;;0.60;0.60;;;;;;;16.27;88.86;101438.13;20766878;28;20076;-85
2022/11/27 14:21:04;;;;;;;1.17;0.80;;;;;;;16.27;88.68;101423.84;20772338;28;20054;-87
2022/11/27 14:31:21;;;;;;;2.17;1.00;;;;;;;16.28;88.77;101404.06;20753367;28;20068;-88
2022/11/27 14:41:25;;;;;;;1.40;0.85;;;;;;;16.20;88.70;101373.28;20767555;28;20045;-87
2022/11/27 14:51:29;;;;;;;0.70;0.70;;;;;;;16.27;88.56;101370.13;20769920;28;20491;-88
2022/11/27 15:01:33;;;;;;;1.45;1.00;;;;;;;16.25;88.55;101354.09;20764200;28;20378;-86
2022/11/27 15:11:34;;;;;;;2.22;0.68;;;;;;;16.05;88.64;101313.47;20754831;28;20057;-87
2022/11/27 15:21:56;;;;;;;1.02;0.80;;;;;;;16.27;88.77;101346.78;20758510;28;20100;-87
2022/11/27 15:31:58;;;;;;;1.05;0.85;;;;;;;16.08;88.50;101297.13;20755444;28;20136;-87
2022/11/27 15:42:01;;;;;;;1.17;0.73;;;;;;;16.26;88.58;101312.84;20743598;28;20060;-87
2022/11/27 15:52:03;;;;;;;1.00;0.77;;;;;;;16.26;88.62;101312.84;20750093;28;20046;-85
2022/11/27 16:02:05;;;;;;;1.55;0.80;;;;;;;16.26;88.55;101309.31;20748791;28;20125;-86
2022/11/27 16:12:08;;;;;;;1.02;0.90;;;;;;;16.26;88.44;101302.09;20756894;28;20536;-85
2022/11/27 16:22:10;;;;;;;1.48;0.90;;;;;;;16.26;88.39;101285.97;20754561;28;20056;-86
2022/11/27 16:32:11;;;;;;;1.45;0.85;;;;;;;16.26;88.12;101264.47;20749108;28;20049;-87
2022/11/27 16:42:13;;;;;;;1.35;0.95;;;;;;;16.24;88.23;101244.94;20753084;28;20517;-86
2022/11/27 16:52:14;;;;;;;2.25;1.00;;;;;;;16.26;87.99;101237.59;20763409;28;20517;-85
2022/11/27 17:02:16;;;;;;;1.15;0.77;;;;;;;16.24;88.08;101228.81;20737731;28;20687;-86
2022/11/27 17:12:18;;;;;;;2.10;0.90;;;;;;;16.25;88.10;101227.84;20760431;28;20056;-87
2022/11/27 17:22:19;;;;;;;1.45;1.00;;;;;;;16.25;88.07;101222.47;20742453;28;20057;-88
2022/11/27 17:32:21;;;;;;;1.30;0.90;;;;;;;16.15;88.21;101186.53;20756910;28;20053;-88
2022/11/27 17:42:22;;;;;;;1.25;0.90;;;;;;;16.24;88.33;101175.94;20754984;28;20049;-84
2022/11/27 17:52:24;;;;;;;2.38;1.17;;;;;;;16.11;88.36;101144.78;20760922;28;20057;-84
2022/11/27 18:02:26;;;;;;;2.22;1.40;;;;;;;16.27;88.68;101158.72;20764554;28;20048;-87
2022/11/27 18:12:27;;;;;;;2.70;1.38;;;;;;;16.28;88.71;101152.38;20758548;28;20615;-85
2022/11/27 18:22:29;;;;;;;3.67;1.60;;;;;;;16.27;88.61;101145.28;20780497;28;20055;-86
2022/11/27 18:32:30;;;;;;;3.47;1.48;;;;;;;16.27;88.57;101128.31;20797926;28;20049;-85
2022/11/27 18:42:32;;;;;;;2.92;1.50;;;;;;;16.05;88.55;101095.94;20797432;28;20132;-86
2022/11/27 18:52:35;;;;;;;3.33;1.48;;;;;;;16.27;88.62;101117.59;20778575;28;20049;-86
2022/11/27 19:02:37;;;;;;;2.50;1.50;;;;;;;16.26;88.56;101103.28;20762998;28;20046;-86
2022/11/27 19:12:39;;;;;;;2.55;1.30;;;;;;;16.27;88.53;101099.63;20794661;28;20078;-85
2022/11/27 19:22:40;;;;;;;2.50;1.38;;;;;;;16.27;88.46;101088.03;20778589;28;20128;-85
2022/11/27 19:32:43;;;;;;;2.30;1.30;;;;;;;16.26;88.36;101081.78;20776727;28;20046;-86
2022/11/27 19:42:46;;;;;;;2.42;1.40;;;;;;;16.27;88.36;101075.44;20768260;28;20068;-85
2022/11/27 19:52:47;;;;;;;2.42;1.35;;;;;;;16.19;88.18;101043.84;20789563;28;20073;-85
2022/11/27 20:02:49;;;;;;;5.38;1.05;;;;;;;16.27;88.45;101053.94;20756423;28;20049;-85
2022/11/27 20:12:51;;;;;;;2.00;1.20;;;;;;;16.18;88.38;101014.41;20776270;28;20045;-86
2022/11/27 20:22:52;;;;;;;1.63;1.35;;;;;;;16.26;88.35;101022.69;20791539;28;20141;-86
2022/11/27 20:32:54;;;;;;;2.10;1.10;;;;;;;16.23;88.40;101009.50;20804148;28;20053;-86
2022/11/27 20:42:56;;;;;;;2.45;1.33;;;;;;;16.05;88.22;100984.97;20802936;28;20127;-86
2022/11/27 20:52:57;;;;;;;1.65;1.20;;;;;;;16.26;88.29;101001.19;20794538;28;20061;-86
2022/11/27 21:02:59;;;;;;;2.28;1.52;;;;;;;16.27;88.27;100991.31;20784637;28;20161;-86
2022/11/27 21:13:01;;;;;;;1.70;1.00;;;;;;;16.25;88.33;100967.25;20800907;28;20055;-86
2022/11/27 21:23:03;;;;;;;1.88;1.17;;;;;;;16.26;88.21;100952.84;20783240;28;20045;-86
2022/11/27 21:33:05;;;;;;;1.80;1.08;;;;;;;16.26;88.16;100933.19;20773514;28;20054;-86
2022/11/27 21:43:06;;;;;;;1.23;1.10;;;;;;;16.14;88.19;100895.63;20799085;28;20045;-85
2022/11/27 21:53:08;;;;;;;1.40;1.17;;;;;;;15.92;88.26;100862.44;20797646;28;20575;-86
2022/11/27 22:03:11;;;;;;;1.15;0.98;;;;;;;16.25;88.29;100900.09;20764319;28;20065;-86
2022/11/27 22:13:12;;;;;;;1.70;1.08;;;;;;;16.26;88.19;100895.59;20792278;28;20443;-86
2022/11/27 22:23:14;;;;;;;1.63;1.10;;;;;;;16.25;88.21;100892.03;20778687;28;20123;-86
2022/11/27 22:33:15;;;;;;;1.67;0.93;;;;;;;16.25;88.17;100886.66;20777844;28;20061;-83
2022/11/27 22:43:17;;;;;;;1.30;0.88;;;;;;;16.24;88.09;100875.09;20777734;28;20053;-86
2022/11/27 22:53:18;;;;;;;2.00;1.20;;;;;;;16.25;88.00;100857.13;20776517;28;20060;-86
2022/11/27 23:03:20;;;;;;;1.50;0.88;;;;;;;16.26;88.00;100849.94;20775489;28;20053;-86
2022/11/27 23:13:22;;;;;;;2.78;1.23;;;;;;;16.24;88.06;100825.88;20795595;28;20049;-86
2022/11/27 23:23:23;;;;;;;2.33;1.13;;;;;;;16.24;88.06;100807.94;20792754;28;20068;-86
2022/11/27 23:33:25;;;;;;;1.60;1.02;;;;;;;16.25;87.88;100792.66;20782690;28;20084;-86
2022/11/27 23:43:27;;;;;;;1.45;1.13;;;;;;;16.06;87.89;100739.63;20773646;28;20049;-86
2022/11/27 23:53:28;;;;;;;2.00;1.13;;;;;;;16.24;87.98;100742.59;20789770;28;20121;-86
